Main page
METAR-TAF:

METAR-TAF

Airports :

Piacenza Air Base

Piacenza, Italy

latitude: 44-55N, longitude: 009-44E, elevation: 134 m

Current weather observation

The report was made 1 hour and 11 minutes ago, at 17:55 UTC
Wind 3 kt from the North/Northwest
Temperature 5°C
Humidity 100%
Pressure 1015 hPa
Visibility: 7000 m
Scattered clouds at a height of 5000 ft
Broken clouds at a height of 6000 ft

METAR: LIMS 211755Z 34003KT 7000 SCT050 BKN060 05/05 Q1015 RMK OVC VIS MIN 7000 WIND THR30 35002KT WHT

Time: 20:06 (19:06 UTC)


TAF: missing

Weather observations and forecasts of more than 4000 airports (METAR and TAF reports).

The available stations are represented by yellow and red dots on the map.

Hover mouse over dot to see the name of the station.

Then click to see weather observations and forecasts.

To change the map : click on the green buttons with a black cross to zoom in, on the green button with a dash to zoom out, or on the green arrows for adjacent maps.


METAR-TAF: